This is the latest recevied weather packets stored in our database for station/object OK1ZDJ-13. If no packets are shown the sender has not sent any weather packets the latest 10 day(s).
| Time | Temp. | Humidity | Pressure | Rain* | Wind** | Luminosity | Snow |
|---|---|---|---|---|---|---|---|
| 1777358244 | 13.89° C | 39% | 1023.8 hPa | - | - | - | - |
| 1777357644 | 14.44° C | 40% | 1023.7 hPa | - | - | - | - |
| 1777357044 | 12.78° C | 43% | 1023.7 hPa | - | - | - | - |
| 1777356444 | 10.56° C | 50% | 1023.7 hPa | - | - | - | - |
| 1777355844 | 8.89° C | 58% | 1023.7 hPa | - | - | - | - |
| 1777354644 | 6.11° C | 66% | 1023.7 hPa | - | - | - | - |
| 1777354044 | 5° C | 69% | 1023.7 hPa | - | - | - | - |
| 1777353444 | 3.89° C | 74% | 1023.6 hPa | - | - | - | - |
| 1777352844 | 2.78° C | 77% | 1023.5 hPa | - | - | - | - |
| 1777351644 | 1.67° C | 80% | 1023.4 hPa | - | - | - | - |
| 1777350444 | 1.11° C | 82% | 1023.3 hPa | - | - | - | - |
| 1777349844 | 0.56° C | 81% | 1023.2 hPa | - | - | - | - |
| 1777349244 | 0.56° C | 81% | 1023.1 hPa | - | - | - | - |
| 1777348644 | 0.56° C | 82% | 1023.2 hPa | - | - | - | - |
| 1777348044 | 0.56° C | 81% | 1023.1 hPa | - | - | - | - |
| 1777347449 | 0.56° C | 81% | 1023.2 hPa | - | - | - | - |
| 1777346842 | 0.56° C | 80% | 1023.1 hPa | - | - | - | - |
| 1777346242 | 0.56° C | 80% | 1023 hPa | - | - | - | - |
| 1777345642 | 1.11° C | 79% | 1023 hPa | - | - | - | - |
| 1777345042 | 1.11° C | 80% | 1023 hPa | - | - | - | - |
| 1777344443 | 1.11° C | 78% | 1023 hPa | - | - | - | - |
| 1777343842 | 1.11° C | 78% | 1023 hPa | - | - | - | - |
| 1777343243 | 1.11° C | 77% | 1022.9 hPa | - | - | - | - |
| 1777342642 | 1.67° C | 77% | 1022.8 hPa | - | - | - | - |
| 1777342043 | 1.67° C | 77% | 1022.8 hPa | - | - | - | - |
* Rain since midnight (hover to see other rain measurements)
** Current wind speed in m/s (hover to see current wind gust speed)